createdAt,value
2019-04-28T00:00:36.339Z,1.33
2019-04-28T00:02:47.208Z,1.40
2019-04-28T00:04:58.147Z,1.57
2019-04-28T00:07:09.119Z,1.17
2019-04-28T00:09:21.269Z,1.50
2019-04-28T00:11:33.638Z,1.40
2019-04-28T00:13:44.626Z,1.30
2019-04-28T00:15:55.467Z,1.37
2019-04-28T00:18:06.334Z,1.30
2019-04-28T00:20:35.753Z,1.10
2019-04-28T00:23:01.713Z,1.47
2019-04-28T00:25:18.374Z,2.00
2019-04-28T00:27:29.261Z,1.40
2019-04-28T00:29:45.672Z,1.40
2019-04-28T00:31:53.289Z,1.70
2019-04-28T00:34:04.352Z,2.00
2019-04-28T00:36:15.301Z,1.30
2019-04-28T00:38:26.261Z,2.33
2019-04-28T00:40:37.222Z,1.60
2019-04-28T00:42:48.089Z,1.60
2019-04-28T00:44:58.916Z,1.50
2019-04-28T00:47:11.093Z,1.50
2019-04-28T00:49:41.958Z,1.20
2019-04-28T00:51:52.973Z,1.27
2019-04-28T00:54:03.830Z,1.50
2019-04-28T00:56:14.666Z,1.50
2019-04-28T00:58:25.562Z,1.40
2019-04-28T01:00:47.357Z,1.60
2019-04-28T01:03:01.694Z,2.27
2019-04-28T01:05:13.547Z,1.53
2019-04-28T01:07:24.527Z,1.67
2019-04-28T01:09:35.372Z,1.40
2019-04-28T01:11:46.219Z,1.33
2019-04-28T01:13:57.078Z,1.40
2019-04-28T01:16:09.934Z,1.50
2019-04-28T01:18:25.554Z,1.27
2019-04-28T01:20:39.678Z,1.70
2019-04-28T01:22:50.640Z,1.50
2019-04-28T01:25:05.354Z,1.57
2019-04-28T01:27:27.138Z,1.57
2019-04-28T01:29:41.836Z,1.40
2019-04-28T01:32:00.725Z,1.80
2019-04-28T01:34:24.257Z,1.60
2019-04-28T01:36:36.612Z,1.70
2019-04-28T01:38:50.071Z,1.40
2019-04-28T01:41:01.546Z,1.77
2019-04-28T01:43:12.607Z,1.83
2019-04-28T01:45:23.445Z,1.63
2019-04-28T01:47:34.320Z,1.60
2019-04-28T01:49:45.176Z,1.80
2019-04-28T01:51:57.636Z,1.70
2019-04-28T01:54:09.790Z,1.40
2019-04-28T01:56:21.236Z,1.50
2019-04-28T01:58:32.080Z,1.87
2019-04-28T02:00:45.008Z,1.73
2019-04-28T02:02:55.888Z,1.33
2019-04-28T02:05:06.954Z,1.50
2019-04-28T02:07:17.894Z,1.87
2019-04-28T02:09:29.634Z,1.40
2019-04-28T02:11:41.286Z,1.40
2019-04-28T02:13:52.199Z,1.30
2019-04-28T02:16:03.171Z,1.87
2019-04-28T02:18:14.015Z,1.50
2019-04-28T02:20:24.979Z,2.17
2019-04-28T02:22:37.752Z,1.63
2019-04-28T02:24:50.391Z,1.53
2019-04-28T02:27:01.670Z,1.60
2019-04-28T02:29:12.499Z,1.57
2019-04-28T02:31:24.416Z,1.63
2019-04-28T02:33:35.431Z,1.70
2019-04-28T02:35:46.316Z,1.47
2019-04-28T02:37:57.178Z,1.60
2019-04-28T02:40:10.595Z,1.40
2019-04-28T02:42:21.144Z,1.80
2019-04-28T02:44:34.928Z,1.50
2019-04-28T02:46:45.288Z,1.80
2019-04-28T02:48:56.126Z,1.50
2019-04-28T02:51:11.920Z,1.47
2019-04-28T02:53:24.690Z,1.67
2019-04-28T02:55:35.529Z,1.40
2019-04-28T02:57:46.398Z,1.30
2019-04-28T02:59:57.240Z,1.40
2019-04-28T03:02:10.406Z,1.57
2019-04-28T03:04:21.051Z,1.30
2019-04-28T03:06:32.011Z,1.50
2019-04-28T03:08:42.851Z,1.80
2019-04-28T03:10:53.817Z,1.50
2019-04-28T03:13:04.667Z,1.57
2019-04-28T03:15:15.612Z,1.30
2019-04-28T03:17:26.524Z,1.57
2019-04-28T03:19:41.475Z,1.20
2019-04-28T03:21:52.145Z,1.40
2019-04-28T03:24:03.191Z,1.50
2019-04-28T03:26:20.692Z,1.50
2019-04-28T03:28:42.635Z,1.53
2019-04-28T03:31:03.279Z,1.37
2019-04-28T03:33:19.075Z,1.40
2019-04-28T03:35:25.835Z,1.67
2019-04-28T03:37:41.331Z,1.40
2019-04-28T03:39:52.437Z,1.30
2019-04-28T03:42:03.405Z,1.30
2019-04-28T03:44:14.330Z,1.20
2019-04-28T03:46:27.125Z,1.27
2019-04-28T03:48:40.771Z,1.30
2019-04-28T03:50:51.457Z,1.67
2019-04-28T03:53:02.534Z,1.10
2019-04-28T03:55:13.391Z,1.27
2019-04-28T03:57:26.192Z,1.37
2019-04-28T03:59:37.063Z,1.53
2019-04-28T04:01:56.620Z,1.40
2019-04-28T04:04:03.092Z,1.43
2019-04-28T04:06:13.405Z,1.30
2019-04-28T04:08:24.257Z,1.37
2019-04-28T04:10:53.484Z,1.10
2019-04-28T04:13:06.245Z,1.20
2019-04-28T04:15:41.081Z,1.27
2019-04-28T04:18:01.983Z,1.00
2019-04-28T04:20:16.658Z,1.00
2019-04-28T04:22:27.694Z,1.23
2019-04-28T04:24:40.343Z,1.40
2019-04-28T04:26:51.512Z,1.23
2019-04-28T04:29:02.469Z,1.57
2019-04-28T04:31:13.316Z,1.20
2019-04-28T04:33:24.177Z,1.00
2019-04-28T04:35:35.009Z,1.10
2019-04-28T04:37:45.885Z,1.30
2019-04-28T04:39:56.741Z,0.90
2019-04-28T04:42:07.572Z,1.20
2019-04-28T04:44:20.971Z,1.20
2019-04-28T04:46:31.648Z,1.30
2019-04-28T04:48:43.358Z,1.30
2019-04-28T04:50:54.209Z,1.10
2019-04-28T04:53:06.935Z,1.57
2019-04-28T04:55:17.953Z,1.40
2019-04-28T04:57:32.404Z,1.33
2019-04-28T04:59:41.602Z,1.17
2019-04-28T05:01:54.354Z,1.47
2019-04-28T05:04:19.734Z,1.10
2019-04-28T05:06:34.475Z,1.20
2019-04-28T05:08:45.348Z,1.20
2019-04-28T05:10:56.192Z,0.93
2019-04-28T05:13:07.033Z,1.40
2019-04-28T05:15:17.936Z,1.20
2019-04-28T05:17:30.165Z,1.10
2019-04-28T05:19:41.138Z,1.07
2019-04-28T05:21:52.056Z,1.10
2019-04-28T05:24:21.927Z,1.30
2019-04-28T05:26:32.729Z,1.13
2019-04-28T05:28:50.421Z,1.03
2019-04-28T05:30:56.336Z,1.13
2019-04-28T05:33:07.194Z,1.10
2019-04-28T05:35:22.051Z,1.20
2019-04-28T05:37:30.814Z,1.30
2019-04-28T05:39:41.700Z,1.37
2019-04-28T05:41:52.528Z,1.43
2019-04-28T05:44:05.274Z,1.10
2019-04-28T05:46:16.124Z,1.20
2019-04-28T05:48:45.671Z,1.30
2019-04-28T05:50:59.935Z,1.10
2019-04-28T05:53:22.042Z,1.27
2019-04-28T05:55:34.817Z,1.37
2019-04-28T05:58:05.641Z,1.23
2019-04-28T06:00:24.515Z,1.40
2019-04-28T06:02:53.547Z,1.40
2019-04-28T06:04:53.059Z,1.30
2019-04-28T06:07:05.954Z,1.10
2019-04-28T06:09:34.016Z,1.00
2019-04-28T06:11:45.080Z,1.20
2019-04-28T06:13:56.540Z,0.90
2019-04-28T06:16:07.398Z,1.13
2019-04-28T06:18:18.264Z,1.50
2019-04-28T06:20:30.348Z,1.47
2019-04-28T06:22:41.360Z,1.23
2019-04-28T06:24:52.209Z,1.37
2019-04-28T06:27:03.268Z,1.37
2019-04-28T06:29:14.125Z,1.50
2019-04-28T06:31:25.091Z,1.03
2019-04-28T06:33:36.078Z,1.07
2019-04-28T06:35:46.910Z,1.07
2019-04-28T06:37:57.956Z,0.67
2019-04-28T06:40:08.982Z,1.03
2019-04-28T06:42:19.864Z,1.20
2019-04-28T06:44:30.705Z,1.13
2019-04-28T06:46:41.575Z,1.20
2019-04-28T06:48:52.439Z,1.00
2019-04-28T06:51:03.502Z,1.10
2019-04-28T06:53:14.501Z,1.17
2019-04-28T06:55:25.364Z,1.17
2019-04-28T06:57:36.231Z,1.37
2019-04-28T06:59:47.178Z,1.10
2019-04-28T07:01:58.062Z,1.10
2019-04-28T07:04:09.092Z,1.50
2019-04-28T07:06:22.033Z,1.23
2019-04-28T07:08:32.917Z,0.90
2019-04-28T07:10:43.777Z,1.20
2019-04-28T07:12:54.757Z,0.93
2019-04-28T07:15:06.200Z,1.07
2019-04-28T07:17:17.192Z,1.20
2019-04-28T07:19:28.036Z,1.20
2019-04-28T07:21:47.062Z,1.20
2019-04-28T07:23:58.019Z,1.37
2019-04-28T07:26:08.971Z,1.63
2019-04-28T07:28:19.851Z,1.30
2019-04-28T07:30:30.913Z,1.60
2019-04-28T07:32:41.923Z,1.30
2019-04-28T07:34:52.756Z,1.80
2019-04-28T07:37:03.692Z,1.30
2019-04-28T07:39:14.571Z,1.10
2019-04-28T07:41:25.409Z,1.40
2019-04-28T07:43:36.326Z,1.30
2019-04-28T07:45:47.164Z,1.30
2019-04-28T07:47:58.051Z,1.67
2019-04-28T07:50:09.303Z,1.60
2019-04-28T07:52:22.082Z,1.50
2019-04-28T07:54:33.342Z,1.20
2019-04-28T07:56:44.201Z,1.40
2019-04-28T07:58:55.118Z,1.07
2019-04-28T08:01:07.974Z,1.50
2019-04-28T08:03:18.950Z,1.43
2019-04-28T08:05:29.913Z,1.37
2019-04-28T08:07:41.361Z,1.40
2019-04-28T08:09:52.406Z,1.80
2019-04-28T08:12:03.880Z,1.43
2019-04-28T08:14:14.859Z,1.60
2019-04-28T08:16:25.761Z,1.80
2019-04-28T08:18:36.642Z,2.00
2019-04-28T08:20:47.506Z,1.67
2019-04-28T08:22:58.451Z,1.50
2019-04-28T08:25:10.932Z,1.87
2019-04-28T08:27:21.796Z,1.77
2019-04-28T08:29:32.669Z,1.73
2019-04-28T08:31:45.543Z,1.73
2019-04-28T08:34:02.596Z,2.13
2019-04-28T08:36:11.452Z,2.07
2019-04-28T08:38:22.406Z,1.90
2019-04-28T08:40:33.439Z,2.23
2019-04-28T08:42:44.295Z,1.80
2019-04-28T08:44:55.169Z,2.00
2019-04-28T08:47:06.118Z,1.97
2019-04-28T08:49:17.077Z,2.30
2019-04-28T08:51:27.979Z,2.30
2019-04-28T08:53:38.930Z,2.10
2019-04-28T08:55:49.817Z,1.97
2019-04-28T08:58:00.775Z,1.93
2019-04-28T09:00:12.642Z,1.67
2019-04-28T09:02:23.478Z,1.57
2019-04-28T09:04:34.338Z,1.70
2019-04-28T09:06:45.227Z,1.50
2019-04-28T09:08:56.127Z,1.30
2019-04-28T09:11:07.019Z,1.20
2019-04-28T09:13:17.868Z,1.40
2019-04-28T09:15:28.992Z,1.50
2019-04-28T09:17:39.937Z,1.10
2019-04-28T09:19:50.913Z,1.30
2019-04-28T09:22:01.824Z,1.43
2019-04-28T09:24:12.673Z,1.30
2019-04-28T09:26:23.543Z,1.30
2019-04-28T09:28:34.403Z,1.20
2019-04-28T09:30:45.550Z,1.00
2019-04-28T09:32:56.422Z,0.90
2019-04-28T09:35:07.493Z,1.30
2019-04-28T09:37:18.398Z,1.33
2019-04-28T09:39:31.141Z,1.30
2019-04-28T09:41:44.507Z,1.27
2019-04-28T09:44:05.257Z,1.50
2019-04-28T09:46:17.415Z,1.60
2019-04-28T09:48:28.392Z,1.43
2019-04-28T09:50:39.243Z,1.53
2019-04-28T09:52:50.198Z,1.50
2019-04-28T09:55:01.165Z,1.27
2019-04-28T09:57:13.964Z,1.47
2019-04-28T09:59:26.863Z,1.70
2019-04-28T10:01:37.721Z,2.00
2019-04-28T10:03:48.582Z,1.67
2019-04-28T10:05:59.550Z,1.93
2019-04-28T10:08:10.530Z,1.70
2019-04-28T10:10:21.503Z,1.30
2019-04-28T10:12:32.801Z,1.67
2019-04-28T10:14:43.924Z,1.57
2019-04-28T10:16:54.765Z,1.40
2019-04-28T10:19:05.648Z,1.50
2019-04-28T10:21:16.598Z,1.00
2019-04-28T10:23:27.583Z,1.43
2019-04-28T10:25:38.932Z,1.90
2019-04-28T10:27:49.875Z,1.60
2019-04-28T10:30:00.856Z,1.73
2019-04-28T10:32:11.813Z,1.80
2019-04-28T10:34:22.830Z,1.80
2019-04-28T10:36:35.193Z,1.70
2019-04-28T10:38:47.969Z,2.00
2019-04-28T10:41:06.659Z,2.13
2019-04-28T10:43:17.516Z,1.87
2019-04-28T10:45:30.290Z,1.70
2019-04-28T10:47:41.374Z,1.40
2019-04-28T10:49:52.361Z,1.50
2019-04-28T10:52:03.321Z,1.70
2019-04-28T10:54:14.311Z,1.67
2019-04-28T10:56:25.138Z,1.53
2019-04-28T10:58:38.828Z,1.50
2019-04-28T11:00:51.697Z,1.30
2019-04-28T11:03:02.991Z,1.53
2019-04-28T11:05:15.849Z,1.43
2019-04-28T11:07:26.799Z,1.60
2019-04-28T11:09:42.591Z,1.70
2019-04-28T11:11:53.449Z,1.97
2019-04-28T11:14:04.639Z,1.90
2019-04-28T11:16:17.529Z,2.00
2019-04-28T11:18:28.443Z,2.03
2019-04-28T11:20:39.380Z,1.63
2019-04-28T11:22:50.370Z,1.63
2019-04-28T11:25:01.371Z,1.63
2019-04-28T11:27:12.317Z,1.70
2019-04-28T11:29:23.184Z,1.93
2019-04-28T11:31:34.171Z,1.50
2019-04-28T11:33:47.087Z,2.13
2019-04-28T11:35:58.157Z,1.17
2019-04-28T11:38:08.989Z,1.20
2019-04-28T11:40:19.898Z,1.10
2019-04-28T11:42:30.832Z,1.23
2019-04-28T11:44:41.681Z,1.30
2019-04-28T11:46:52.752Z,3.17
2019-04-28T11:49:03.697Z,1.83
2019-04-28T11:51:14.919Z,1.50
2019-04-28T11:53:25.761Z,1.40
2019-04-28T11:55:36.727Z,1.13
2019-04-28T11:57:47.578Z,2.00
2019-04-28T11:59:58.426Z,1.40
2019-04-28T12:02:09.526Z,1.87
2019-04-28T12:04:20.514Z,2.00
2019-04-28T12:06:31.471Z,1.70
2019-04-28T12:08:42.459Z,1.87
2019-04-28T12:10:55.214Z,2.30
2019-04-28T12:13:08.058Z,2.00
2019-04-28T12:15:37.625Z,2.00
2019-04-28T12:18:06.995Z,1.70
2019-04-28T12:20:22.533Z,2.00
2019-04-28T12:22:35.348Z,2.30
2019-04-28T12:24:46.231Z,1.83
2019-04-28T12:26:57.102Z,2.30
2019-04-28T12:29:08.049Z,2.00
2019-04-28T12:31:19.029Z,1.90
2019-04-28T12:33:30.009Z,1.80
2019-04-28T12:35:47.640Z,1.80
2019-04-28T12:37:53.663Z,1.47
2019-04-28T12:40:05.278Z,1.50
2019-04-28T12:42:16.151Z,1.63
2019-04-28T12:44:27.132Z,1.40
2019-04-28T12:46:38.007Z,1.77
2019-04-28T12:48:50.787Z,1.10
2019-04-28T12:51:01.674Z,1.27
2019-04-28T12:53:12.681Z,1.20
2019-04-28T12:55:23.560Z,1.30
2019-04-28T12:57:34.493Z,1.07
2019-04-28T12:59:53.087Z,1.33
2019-04-28T13:02:04.809Z,1.20
2019-04-28T13:04:17.700Z,1.03
2019-04-28T13:06:28.689Z,1.50
2019-04-28T13:08:39.795Z,1.27
2019-04-28T13:10:51.498Z,1.50
2019-04-28T13:13:02.357Z,0.93
2019-04-28T13:15:13.421Z,1.03
2019-04-28T13:17:24.305Z,1.10
2019-04-28T13:19:35.400Z,1.10
2019-04-28T13:21:46.344Z,1.00
2019-04-28T13:23:57.355Z,0.90
2019-04-28T13:26:08.317Z,0.73
2019-04-28T13:28:19.482Z,0.80
2019-04-28T13:30:30.504Z,0.90
2019-04-28T13:32:41.472Z,0.67
2019-04-28T13:34:52.544Z,0.70
2019-04-28T13:37:03.643Z,0.90
2019-04-28T13:39:22.450Z,1.07
2019-04-28T13:41:37.410Z,0.80
2019-04-28T13:43:48.518Z,0.80
2019-04-28T13:45:59.471Z,0.90
2019-04-28T13:48:10.364Z,0.67
2019-04-28T13:50:38.502Z,0.90
2019-04-28T13:52:49.336Z,0.83
2019-04-28T13:55:02.234Z,1.13
2019-04-28T13:57:13.104Z,0.90
2019-04-28T13:59:24.103Z,0.87
2019-04-28T14:01:55.216Z,0.60
2019-04-28T14:04:10.964Z,0.73
2019-04-28T14:06:28.643Z,0.70
2019-04-28T14:08:36.608Z,0.80
2019-04-28T14:10:47.490Z,1.07
2019-04-28T14:12:58.334Z,0.80
2019-04-28T14:15:09.411Z,0.90
2019-04-28T14:17:20.273Z,1.07
2019-04-28T14:19:31.119Z,0.83
2019-04-28T14:21:42.109Z,0.70
2019-04-28T14:23:53.037Z,0.80
2019-04-28T14:26:04.030Z,1.20
2019-04-28T14:28:14.849Z,1.20
2019-04-28T14:30:25.727Z,1.23
2019-04-28T14:32:36.685Z,0.80
2019-04-28T14:34:47.537Z,1.00
2019-04-28T14:36:58.441Z,0.77
2019-04-28T14:39:09.273Z,0.80
2019-04-28T14:41:20.225Z,0.60
2019-04-28T14:43:31.159Z,0.50
2019-04-28T14:45:42.017Z,0.60
2019-04-28T14:47:52.985Z,0.90
2019-04-28T14:50:05.835Z,0.60
2019-04-28T14:52:16.722Z,1.00
2019-04-28T14:54:27.544Z,0.90
2019-04-28T14:56:38.570Z,1.00
2019-04-28T14:58:49.468Z,0.90
2019-04-28T15:01:02.260Z,0.67
2019-04-28T15:03:14.917Z,0.80
2019-04-28T15:08:06.000Z,0.97
2019-04-28T15:10:21.658Z,0.80
2019-04-28T15:12:32.642Z,0.80
2019-04-28T15:14:43.453Z,0.70
2019-04-28T15:16:54.317Z,0.90
2019-04-28T15:19:05.205Z,0.90
2019-04-28T15:21:16.352Z,0.93
2019-04-28T15:23:27.246Z,0.93
2019-04-28T15:25:38.187Z,0.80
2019-04-28T15:27:49.156Z,0.90
2019-04-28T15:30:00.103Z,0.80
2019-04-28T15:32:10.983Z,1.20
2019-04-28T15:34:21.950Z,1.13
2019-04-28T15:36:32.831Z,0.90
2019-04-28T15:38:43.696Z,0.80
2019-04-28T15:40:54.646Z,0.80
2019-04-28T15:43:05.539Z,0.80
2019-04-28T15:45:16.780Z,0.90
2019-04-28T15:47:29.539Z,0.90
2019-04-28T15:49:40.402Z,0.60
2019-04-28T15:51:51.282Z,0.60
2019-04-28T15:54:02.223Z,0.63
2019-04-28T15:56:14.980Z,0.63
2019-04-28T15:58:34.141Z,0.90
2019-04-28T16:00:44.984Z,0.70
2019-04-28T16:02:55.856Z,0.60
2019-04-28T16:05:06.958Z,0.50
2019-04-28T16:07:24.660Z,0.80
2019-04-28T16:09:30.865Z,0.93
2019-04-28T16:11:41.810Z,0.90
2019-04-28T16:13:52.705Z,0.70
2019-04-28T16:16:04.043Z,0.80
2019-04-28T16:18:15.017Z,0.70
2019-04-28T16:20:25.985Z,0.97
2019-04-28T16:22:36.878Z,0.77
2019-04-28T16:24:47.840Z,0.80
2019-04-28T16:26:58.786Z,0.93
2019-04-28T16:29:09.738Z,0.80
2019-04-28T16:31:20.624Z,1.00
2019-04-28T16:33:31.479Z,0.70
2019-04-28T16:35:42.353Z,1.10
2019-04-28T16:37:53.455Z,1.23
2019-04-28T16:40:09.020Z,0.80
2019-04-28T16:42:17.894Z,0.77
2019-04-28T16:44:34.009Z,0.60
2019-04-28T16:46:44.978Z,0.80
2019-04-28T16:48:55.854Z,1.00
2019-04-28T16:51:06.818Z,0.63
2019-04-28T16:53:17.788Z,0.70
2019-04-28T16:55:36.821Z,1.10
2019-04-28T16:57:58.585Z,0.97
2019-04-28T17:00:11.528Z,1.00
2019-04-28T17:02:24.405Z,1.10
2019-04-28T17:04:35.279Z,0.97
2019-04-28T17:06:46.136Z,1.10
2019-04-28T17:08:57.161Z,1.27
2019-04-28T17:11:08.083Z,1.30
2019-04-28T17:13:18.934Z,1.27
2019-04-28T17:15:30.357Z,1.33
2019-04-28T17:17:41.513Z,1.30
2019-04-28T17:19:52.504Z,0.90
2019-04-28T17:22:03.442Z,0.90
2019-04-28T17:24:14.318Z,1.10
2019-04-28T17:26:25.981Z,1.10
2019-04-28T17:28:36.950Z,0.97
2019-04-28T17:30:48.000Z,1.13
2019-04-28T17:32:58.966Z,0.93
2019-04-28T17:35:10.118Z,1.03
2019-04-28T17:37:21.306Z,0.83
2019-04-28T17:39:32.799Z,0.90
2019-04-28T17:41:43.925Z,0.93
2019-04-28T17:43:55.037Z,0.97
2019-04-28T17:46:06.777Z,0.97
2019-04-28T17:48:19.546Z,1.10
2019-04-28T17:50:31.099Z,1.30
2019-04-28T17:52:41.960Z,1.20
2019-04-28T17:54:52.827Z,1.20
2019-04-28T17:57:04.344Z,1.00
2019-04-28T17:59:15.298Z,1.10
2019-04-28T18:01:28.162Z,1.33
2019-04-28T18:03:59.257Z,1.20
2019-04-28T18:06:17.846Z,1.10
2019-04-28T18:08:25.401Z,0.97
2019-04-28T18:10:36.951Z,1.03
2019-04-28T18:12:59.946Z,1.07
2019-04-28T18:15:02.670Z,1.30
2019-04-28T18:17:15.549Z,0.97
2019-04-28T18:19:27.087Z,1.00
2019-04-28T18:21:38.063Z,1.20
2019-04-28T18:23:49.904Z,1.20
2019-04-28T18:26:00.981Z,1.07
2019-04-28T18:28:11.896Z,1.20
2019-04-28T18:30:24.670Z,1.47
2019-04-28T18:32:46.846Z,1.07
2019-04-28T18:35:09.003Z,1.37
2019-04-28T18:37:38.593Z,1.10
2019-04-28T18:40:00.372Z,1.23
2019-04-28T18:42:21.135Z,1.07
2019-04-28T18:44:32.027Z,1.10
2019-04-28T18:46:43.114Z,1.30
2019-04-28T18:48:54.064Z,1.20
2019-04-28T18:51:05.035Z,1.40
2019-04-28T18:53:16.016Z,1.17
2019-04-28T18:55:27.106Z,1.30
2019-04-28T18:57:38.110Z,1.20
2019-04-28T18:59:49.179Z,0.97
2019-04-28T19:02:02.074Z,0.97
2019-04-28T19:04:13.225Z,1.20
2019-04-28T19:06:24.345Z,1.00
2019-04-28T19:08:48.922Z,1.10
2019-04-28T19:10:54.702Z,0.93
2019-04-28T19:13:07.517Z,1.23
2019-04-28T19:15:32.305Z,1.37
2019-04-28T19:17:45.103Z,1.30
2019-04-28T19:19:57.877Z,0.93
2019-04-28T19:22:08.836Z,0.90
2019-04-28T19:24:22.518Z,1.20
2019-04-28T19:26:33.451Z,1.40
2019-04-28T19:28:44.319Z,1.40
2019-04-28T19:30:55.169Z,1.27
2019-04-28T19:33:06.174Z,1.07
2019-04-28T19:35:17.228Z,1.20
2019-04-28T19:37:28.187Z,1.40
2019-04-28T19:39:40.847Z,1.50
2019-04-28T19:41:51.808Z,1.63
2019-04-28T19:44:02.938Z,1.53
2019-04-28T19:46:15.709Z,1.80
2019-04-28T19:48:26.789Z,1.50
2019-04-28T19:50:37.792Z,1.83
2019-04-28T19:52:48.783Z,1.80
2019-04-28T19:55:07.351Z,1.70
2019-04-28T19:57:20.342Z,2.00
2019-04-28T19:59:33.125Z,1.90
2019-04-28T20:01:43.968Z,2.00
2019-04-28T20:03:55.037Z,2.17
2019-04-28T20:06:06.139Z,1.80
2019-04-28T20:08:18.892Z,1.77
2019-04-28T20:10:30.122Z,1.43
2019-04-28T20:12:41.168Z,1.80
2019-04-28T20:14:52.061Z,1.50
2019-04-28T20:17:03.062Z,1.67
2019-04-28T20:19:13.917Z,1.87
2019-04-28T20:21:24.873Z,2.00
2019-04-28T20:23:35.731Z,1.90
2019-04-28T20:25:46.669Z,2.03
2019-04-28T20:27:57.521Z,1.90
2019-04-28T20:30:08.693Z,2.03
2019-04-28T20:32:19.705Z,1.80
2019-04-28T20:34:30.680Z,1.70
2019-04-28T20:36:43.629Z,1.40
2019-04-28T20:39:08.721Z,1.40
2019-04-28T20:41:21.526Z,1.20
2019-04-28T20:43:32.395Z,1.10
2019-04-28T20:45:43.379Z,1.50
2019-04-28T20:47:54.335Z,1.43
2019-04-28T20:50:05.301Z,1.50
2019-04-28T20:52:16.189Z,1.50
2019-04-28T20:54:27.052Z,1.50
2019-04-28T20:56:37.922Z,1.80
2019-04-28T20:58:48.886Z,1.73
2019-04-28T21:01:00.032Z,1.50
2019-04-28T21:03:10.937Z,1.60
2019-04-28T21:05:21.853Z,1.70
2019-04-28T21:07:32.835Z,1.40
2019-04-28T21:09:43.690Z,1.50
2019-04-28T21:11:54.587Z,1.57
2019-04-28T21:14:05.650Z,1.70
2019-04-28T21:16:16.496Z,1.60
2019-04-28T21:18:27.492Z,1.63
2019-04-28T21:20:38.501Z,1.80
2019-04-28T21:22:49.378Z,1.43
2019-04-28T21:25:00.235Z,1.53
2019-04-28T21:27:11.240Z,1.67
2019-04-28T21:29:22.205Z,1.90
2019-04-28T21:31:33.054Z,1.50
2019-04-28T21:33:44.036Z,2.00
2019-04-28T21:35:54.986Z,1.80
2019-04-28T21:38:05.981Z,1.47
2019-04-28T21:40:17.943Z,1.43
2019-04-28T21:42:30.719Z,1.57
2019-04-28T21:44:52.455Z,1.43
2019-04-28T21:47:14.002Z,2.10
2019-04-28T21:49:26.870Z,1.73
2019-04-28T21:51:37.770Z,1.90
2019-04-28T21:53:48.747Z,1.60
2019-04-28T21:55:59.594Z,1.90
2019-04-28T21:58:10.621Z,1.67
2019-04-28T22:00:25.498Z,2.23
2019-04-28T22:02:36.455Z,2.10
2019-04-28T22:04:47.340Z,1.70
2019-04-28T22:06:58.294Z,1.80
2019-04-28T22:09:10.661Z,2.17
2019-04-28T22:11:21.633Z,2.00
2019-04-28T22:13:32.470Z,1.90
2019-04-28T22:15:46.240Z,2.40
2019-04-28T22:17:57.085Z,2.03
2019-04-28T22:20:08.154Z,2.10
2019-04-28T22:22:19.001Z,2.10
2019-04-28T22:24:37.788Z,2.03
2019-04-28T22:26:50.658Z,2.23
2019-04-28T22:29:01.740Z,1.70
2019-04-28T22:31:12.610Z,1.60
2019-04-28T22:33:23.461Z,1.50
2019-04-28T22:35:34.400Z,1.63
2019-04-28T22:37:46.411Z,1.40
2019-04-28T22:39:57.229Z,1.60
2019-04-28T22:42:11.041Z,1.70
2019-04-28T22:44:22.331Z,1.73
2019-04-28T22:46:42.415Z,1.80
2019-04-28T22:48:55.306Z,1.70
2019-04-28T22:51:06.355Z,1.40
2019-04-28T22:53:19.127Z,1.83
2019-04-28T22:55:35.034Z,1.50
2019-04-28T22:58:04.877Z,1.87
2019-04-28T23:00:23.019Z,1.40
2019-04-28T23:02:35.764Z,1.40
2019-04-28T23:04:57.121Z,1.20
2019-04-28T23:07:08.349Z,1.50
2019-04-28T23:09:19.797Z,1.80
2019-04-28T23:11:30.814Z,1.50
2019-04-28T23:13:41.666Z,1.77
2019-04-28T23:15:52.718Z,1.60
2019-04-28T23:18:03.717Z,1.50
2019-04-28T23:20:14.883Z,1.40
2019-04-28T23:22:47.001Z,1.50
2019-04-28T23:24:58.529Z,1.80
2019-04-28T23:27:09.399Z,1.87
2019-04-28T23:29:20.345Z,2.00
2019-04-28T23:31:31.315Z,1.60
2019-04-28T23:33:49.999Z,1.37
2019-04-28T23:36:00.950Z,1.50
2019-04-28T23:38:11.878Z,1.40
2019-04-28T23:40:22.870Z,1.63
2019-04-28T23:42:35.804Z,1.50
2019-04-28T23:44:46.708Z,1.80
2019-04-28T23:46:59.587Z,1.33
2019-04-28T23:49:10.452Z,1.53
2019-04-28T23:51:23.221Z,1.77
2019-04-28T23:53:52.658Z,2.03
2019-04-28T23:56:03.731Z,1.40
2019-04-28T23:58:14.611Z,1.63
